Kansas City, Missouri
Traffic Map
Current Weather Conditions
Kansas City, Missouri
Overcast
Overcast

Feels Like: 1°
Wind Chill: Ceiling: 2800
Heat Index: Visibility: 10mi
Dew Point: -2° Wind: 6mph
Humidity: 70% Direction: 360° (N)
Pressure: 30.09in Gusts: 0mph
Raw Report DataKMKC 260231Z 36005KT 10SM OVC028 03/M02 A3009 RMK AO2 T00331017
Traffic Incident Summary
Active as of:
Severity:
Category:
InformationThere was an issue retrieving the traffic information for this location. Please try a different location or try again shortly.
Advertisements
Track Severe Weather on mobile